createdAt,value
2019-02-15T00:01:32.911Z,2.90
2019-02-15T00:04:03.399Z,2.90
2019-02-15T00:06:34.039Z,2.90
2019-02-15T00:09:05.714Z,2.80
2019-02-15T00:11:36.175Z,2.80
2019-02-15T00:14:06.633Z,2.70
2019-02-15T00:16:37.116Z,2.70
2019-02-15T00:19:15.318Z,2.70
2019-02-15T00:21:47.981Z,2.60
2019-02-15T00:24:18.472Z,2.50
2019-02-15T00:26:48.905Z,2.50
2019-02-15T00:29:19.400Z,2.50
2019-02-15T00:31:49.923Z,2.50
2019-02-15T00:34:20.457Z,2.50
2019-02-15T00:36:50.890Z,2.50
2019-02-15T00:39:21.342Z,2.50
2019-02-15T00:41:51.834Z,2.40
2019-02-15T00:44:22.306Z,2.40
2019-02-15T00:47:21.078Z,2.40
2019-02-15T00:50:02.281Z,2.40
2019-02-15T00:52:53.530Z,2.40
2019-02-15T00:55:38.500Z,2.40
2019-02-15T00:58:30.774Z,2.40
2019-02-15T01:01:26.281Z,2.30
2019-02-15T01:04:07.257Z,2.30
2019-02-15T01:06:59.406Z,2.20
2019-02-15T01:09:35.263Z,2.20
2019-02-15T01:12:24.656Z,2.20
2019-02-15T01:14:55.115Z,2.20
2019-02-15T01:17:25.643Z,2.10
2019-02-15T01:19:56.126Z,2.10
2019-02-15T01:22:26.598Z,2.10
2019-02-15T01:24:57.157Z,2.10
2019-02-15T01:27:33.407Z,2.00
2019-02-15T01:30:26.207Z,2.00
2019-02-15T01:33:09.270Z,2.00
2019-02-15T01:36:01.719Z,2.00
2019-02-15T01:38:49.881Z,1.90
2019-02-15T01:41:34.965Z,1.90
2019-02-15T01:44:24.323Z,1.90
2019-02-15T01:47:01.843Z,1.80
2019-02-15T01:49:32.318Z,1.80
2019-02-15T01:52:02.858Z,1.70
2019-02-15T01:54:33.302Z,1.70
2019-02-15T01:57:03.893Z,1.70
2019-02-15T01:59:34.398Z,1.70
2019-02-15T02:02:04.792Z,1.70
2019-02-15T02:04:35.228Z,1.60
2019-02-15T02:07:05.827Z,1.60
2019-02-15T02:09:36.318Z,1.60
2019-02-15T02:12:06.974Z,1.60
2019-02-15T02:14:37.416Z,1.60
2019-02-15T02:17:07.923Z,1.60
2019-02-15T02:19:38.365Z,1.60
2019-02-15T02:22:08.870Z,1.60
2019-02-15T02:24:39.319Z,1.60
2019-02-15T02:27:09.799Z,1.60
2019-02-15T02:29:40.240Z,1.60
2019-02-15T02:32:10.739Z,1.60
2019-02-15T02:34:41.213Z,1.50
2019-02-15T02:37:11.719Z,1.50
2019-02-15T02:39:42.192Z,1.50
2019-02-15T02:42:12.687Z,1.50
2019-02-15T02:44:43.211Z,1.50
2019-02-15T02:47:13.672Z,1.50
2019-02-15T02:49:44.106Z,1.50
2019-02-15T02:52:14.639Z,1.50
2019-02-15T02:54:45.119Z,1.50
2019-02-15T02:57:15.610Z,1.40
2019-02-15T02:59:46.058Z,1.40
2019-02-15T03:02:16.486Z,1.40
2019-02-15T03:04:46.964Z,1.40
2019-02-15T03:07:17.430Z,1.30
2019-02-15T03:09:47.900Z,1.30
2019-02-15T03:12:18.415Z,1.30
2019-02-15T03:14:48.884Z,1.20
2019-02-15T03:17:19.317Z,1.20
2019-02-15T03:19:49.792Z,1.20
2019-02-15T03:22:20.311Z,1.20
2019-02-15T03:24:50.764Z,1.20
2019-02-15T03:27:21.198Z,1.10
2019-02-15T03:29:51.760Z,1.10
2019-02-15T03:32:22.264Z,1.10
2019-02-15T03:34:53.233Z,1.10
2019-02-15T03:37:42.290Z,1.10
2019-02-15T03:40:22.552Z,1.10
2019-02-15T03:42:53.807Z,1.10
2019-02-15T03:45:25.150Z,1.10
2019-02-15T03:47:56.345Z,1.10
2019-02-15T03:50:27.658Z,1.00
2019-02-15T03:53:00.178Z,1.00
2019-02-15T03:55:35.031Z,1.00
2019-02-15T03:58:07.571Z,1.00
2019-02-15T04:00:39.174Z,1.00
2019-02-15T04:03:11.122Z,1.00
2019-02-15T04:05:42.810Z,1.00
2019-02-15T04:08:14.434Z,1.00
2019-02-15T04:10:44.857Z,0.90
2019-02-15T04:13:15.297Z,1.00
2019-02-15T04:15:45.839Z,1.00
2019-02-15T04:18:16.300Z,1.00
2019-02-15T04:20:46.773Z,0.90
2019-02-15T04:23:17.208Z,0.90
2019-02-15T04:25:47.639Z,0.90
2019-02-15T04:28:18.124Z,0.90
2019-02-15T04:30:48.673Z,0.90
2019-02-15T04:33:19.163Z,0.90
2019-02-15T04:35:49.620Z,0.90
2019-02-15T04:38:20.068Z,0.90
2019-02-15T04:40:50.559Z,0.90
2019-02-15T04:43:21.058Z,0.80
2019-02-15T04:45:51.554Z,0.80
2019-02-15T04:48:22.018Z,0.80
2019-02-15T04:50:52.457Z,0.80
2019-02-15T04:53:23.010Z,0.80
2019-02-15T04:55:53.475Z,0.80
2019-02-15T04:58:24.047Z,0.80
2019-02-15T05:00:54.574Z,0.80
2019-02-15T05:03:25.009Z,0.80
2019-02-15T05:05:55.515Z,0.80
2019-02-15T05:08:26.062Z,0.80
2019-02-15T05:10:56.498Z,0.80
2019-02-15T05:13:30.099Z,0.80
2019-02-15T05:16:00.550Z,0.80
2019-02-15T05:18:30.988Z,0.70
2019-02-15T05:21:01.451Z,0.70
2019-02-15T05:23:32.107Z,0.70
2019-02-15T05:26:04.721Z,0.70
2019-02-15T05:28:35.362Z,0.70
2019-02-15T05:31:05.904Z,0.70
2019-02-15T05:33:36.660Z,0.70
2019-02-15T05:36:07.162Z,0.70
2019-02-15T05:38:37.805Z,0.70
2019-02-15T05:41:08.313Z,0.70
2019-02-15T05:43:38.847Z,0.70
2019-02-15T05:46:09.411Z,0.70
2019-02-15T05:48:39.860Z,0.70
2019-02-15T05:51:10.366Z,0.70
2019-02-15T05:53:40.851Z,0.70
2019-02-15T05:56:14.190Z,0.70
2019-02-15T05:58:44.790Z,0.70
2019-02-15T06:01:15.540Z,0.70
2019-02-15T06:03:46.029Z,0.70
2019-02-15T06:06:16.524Z,0.70
2019-02-15T06:08:47.034Z,0.70
2019-02-15T06:11:17.523Z,0.70
2019-02-15T06:13:48.059Z,0.70
2019-02-15T06:16:18.497Z,0.70
2019-02-15T06:18:48.930Z,0.70
2019-02-15T06:21:19.473Z,0.70
2019-02-15T06:23:50.022Z,0.70
2019-02-15T06:26:20.475Z,0.70
2019-02-15T06:28:51.067Z,0.70
2019-02-15T06:31:21.549Z,0.80
2019-02-15T06:33:52.127Z,0.80
2019-02-15T06:36:22.912Z,0.80
2019-02-15T06:38:53.494Z,0.80
2019-02-15T06:41:23.947Z,0.80
2019-02-15T06:43:54.458Z,0.80
2019-02-15T06:46:24.917Z,0.80
2019-02-15T06:48:55.569Z,0.80
2019-02-15T06:51:26.009Z,0.80
2019-02-15T06:53:56.463Z,0.80
2019-02-15T06:56:26.939Z,0.80
2019-02-15T06:59:25.568Z,0.80
2019-02-15T07:02:04.853Z,0.80
2019-02-15T07:04:39.592Z,0.80
2019-02-15T07:07:10.021Z,0.90
2019-02-15T07:09:40.500Z,0.90
2019-02-15T07:12:10.937Z,0.90
2019-02-15T07:14:41.408Z,1.00
2019-02-15T07:17:11.853Z,1.00
2019-02-15T07:19:43.778Z,1.00
2019-02-15T07:22:14.421Z,1.10
2019-02-15T07:24:44.921Z,1.10
2019-02-15T07:27:15.351Z,1.20
2019-02-15T07:29:45.812Z,1.20
2019-02-15T07:32:16.250Z,1.30
2019-02-15T07:34:46.708Z,1.30
2019-02-15T07:37:17.164Z,1.40
2019-02-15T07:39:47.609Z,1.40
2019-02-15T07:42:18.082Z,1.50
2019-02-15T07:44:48.525Z,1.50
2019-02-15T07:47:18.958Z,1.50
2019-02-15T07:49:49.422Z,1.50
2019-02-15T07:52:19.940Z,1.60
2019-02-15T07:54:50.385Z,1.60
2019-02-15T07:57:20.817Z,1.70
2019-02-15T07:59:51.304Z,1.70
2019-02-15T08:02:21.799Z,1.80
2019-02-15T08:04:52.269Z,1.80
2019-02-15T08:07:23.572Z,1.90
2019-02-15T08:09:54.020Z,2.00
2019-02-15T08:12:24.875Z,2.20
2019-02-15T08:14:56.063Z,2.30
2019-02-15T08:17:26.510Z,2.50
2019-02-15T08:19:57.005Z,2.60
2019-02-15T08:22:27.470Z,2.80
2019-02-15T08:24:57.918Z,3.00
2019-02-15T08:27:28.409Z,3.30
2019-02-15T08:29:59.226Z,3.50
2019-02-15T08:32:29.738Z,3.70
2019-02-15T08:35:00.303Z,4.00
2019-02-15T08:37:30.749Z,4.20
2019-02-15T08:40:01.188Z,4.40
2019-02-15T08:42:31.681Z,4.60
2019-02-15T08:45:02.146Z,4.80
2019-02-15T08:47:32.623Z,5.00
2019-02-15T08:50:03.123Z,5.10
2019-02-15T08:52:33.568Z,5.30
2019-02-15T08:55:04.064Z,5.50
2019-02-15T08:57:34.533Z,5.80
2019-02-15T09:00:05.477Z,6.00
2019-02-15T09:02:35.924Z,6.20
2019-02-15T09:05:07.564Z,6.50
2019-02-15T09:07:38.004Z,6.70
2019-02-15T09:10:10.586Z,6.90
2019-02-15T09:12:41.028Z,7.20
2019-02-15T09:15:16.028Z,7.30
2019-02-15T09:17:46.493Z,7.50
2019-02-15T09:20:16.973Z,7.80
2019-02-15T09:22:47.448Z,8.00
2019-02-15T09:25:19.655Z,8.20
2019-02-15T09:28:09.035Z,8.30
2019-02-15T09:30:39.483Z,8.50
2019-02-15T09:33:10.002Z,8.70
2019-02-15T09:35:40.454Z,8.90
2019-02-15T09:38:10.992Z,9.10
2019-02-15T09:40:41.431Z,9.20
2019-02-15T09:43:11.891Z,9.40
2019-02-15T09:45:42.384Z,9.50
2019-02-15T09:48:12.825Z,9.70
2019-02-15T09:50:43.331Z,9.80
2019-02-15T09:53:13.861Z,10.00
2019-02-15T09:55:44.340Z,10.10
2019-02-15T09:58:16.496Z,10.30
2019-02-15T10:00:47.074Z,10.40
2019-02-15T10:03:17.576Z,10.60
2019-02-15T10:05:48.065Z,10.80
2019-02-15T10:08:18.562Z,10.90
2019-02-15T10:10:49.236Z,11.10
2019-02-15T10:13:19.793Z,11.20
2019-02-15T10:15:50.294Z,11.40
2019-02-15T10:18:20.742Z,11.50
2019-02-15T10:20:51.224Z,11.60
2019-02-15T10:23:21.848Z,11.80
2019-02-15T10:25:52.302Z,11.90
2019-02-15T10:28:22.950Z,12.10
2019-02-15T10:30:53.469Z,12.20
2019-02-15T10:33:24.090Z,12.40
2019-02-15T10:35:54.699Z,12.60
2019-02-15T10:38:25.186Z,12.70
2019-02-15T10:40:55.821Z,12.80
2019-02-15T10:43:26.368Z,13.00
2019-02-15T10:45:56.915Z,13.10
2019-02-15T10:48:27.456Z,13.20
2019-02-15T10:50:58.001Z,13.40
2019-02-15T10:53:28.556Z,13.50
2019-02-15T10:55:59.100Z,13.60
2019-02-15T10:58:29.596Z,13.70
2019-02-15T11:01:00.201Z,13.90
2019-02-15T11:03:30.841Z,13.90
2019-02-15T11:06:01.355Z,14.00
2019-02-15T11:08:31.928Z,14.10
2019-02-15T11:11:02.569Z,14.10
2019-02-15T11:13:33.557Z,14.20
2019-02-15T11:16:04.127Z,14.30
2019-02-15T11:18:34.693Z,14.40
2019-02-15T11:21:05.282Z,14.50
2019-02-15T11:23:35.787Z,14.60
2019-02-15T11:26:06.327Z,14.70
2019-02-15T11:28:36.911Z,14.80
2019-02-15T11:31:07.440Z,14.90
2019-02-15T11:33:37.980Z,15.00
2019-02-15T11:36:08.512Z,15.10
2019-02-15T11:38:39.080Z,15.20
2019-02-15T11:41:11.371Z,15.20
2019-02-15T11:43:42.019Z,15.30
2019-02-15T11:46:12.565Z,15.40
2019-02-15T11:48:43.118Z,15.50
2019-02-15T11:51:13.622Z,15.60
2019-02-15T11:53:44.147Z,15.70
2019-02-15T11:56:14.658Z,15.80
2019-02-15T11:58:45.239Z,15.90
2019-02-15T12:01:15.798Z,16.00
2019-02-15T12:03:46.302Z,16.10
2019-02-15T12:06:16.860Z,16.20
2019-02-15T12:08:47.348Z,16.30
2019-02-15T12:11:17.919Z,16.40
2019-02-15T12:13:48.479Z,16.50
2019-02-15T12:16:18.982Z,16.60
2019-02-15T12:18:49.546Z,16.60
2019-02-15T12:21:20.054Z,16.70
2019-02-15T12:23:50.663Z,16.80
2019-02-15T12:26:21.195Z,16.90
2019-02-15T12:28:51.872Z,16.90
2019-02-15T12:31:22.452Z,17.00
2019-02-15T12:33:53.009Z,17.00
2019-02-15T12:36:23.691Z,16.90
2019-02-15T12:38:54.240Z,16.90
2019-02-15T12:41:24.919Z,16.90
2019-02-15T12:43:55.627Z,16.90
2019-02-15T12:46:26.242Z,16.90
2019-02-15T12:48:56.881Z,16.80
2019-02-15T12:51:27.378Z,16.80
2019-02-15T12:53:57.986Z,16.80
2019-02-15T12:56:28.538Z,16.80
2019-02-15T12:58:59.047Z,16.80
2019-02-15T13:01:29.616Z,16.70
2019-02-15T13:04:00.183Z,16.60
2019-02-15T13:06:30.741Z,16.60
2019-02-15T13:09:01.286Z,16.50
2019-02-15T13:11:31.904Z,16.40
2019-02-15T13:14:02.473Z,16.40
2019-02-15T13:16:33.002Z,16.40
2019-02-15T13:19:03.726Z,16.30
2019-02-15T13:21:34.366Z,16.30
2019-02-15T13:24:04.975Z,16.30
2019-02-15T13:26:35.596Z,16.20
2019-02-15T13:29:06.114Z,16.20
2019-02-15T13:31:36.756Z,16.20
2019-02-15T13:34:07.446Z,16.10
2019-02-15T13:42:24.129Z,16.00
2019-02-15T13:44:55.246Z,16.00
2019-02-15T13:47:34.309Z,16.00
2019-02-15T13:49:58.283Z,16.00
2019-02-15T13:52:28.803Z,16.00
2019-02-15T13:54:59.396Z,15.90
2019-02-15T13:57:29.938Z,15.90
2019-02-15T14:00:00.488Z,15.90
2019-02-15T14:02:31.166Z,15.90
2019-02-15T14:05:01.693Z,15.90
2019-02-15T14:07:32.242Z,15.90
2019-02-15T14:10:02.784Z,15.90
2019-02-15T14:12:33.336Z,15.90
2019-02-15T14:15:03.890Z,15.90
2019-02-15T14:17:43.878Z,15.90
2019-02-15T14:20:08.433Z,15.90
2019-02-15T14:22:38.999Z,15.90
2019-02-15T14:25:10.125Z,15.90
2019-02-15T14:27:40.693Z,15.80
2019-02-15T14:30:11.994Z,15.80
2019-02-15T14:32:42.603Z,15.80
2019-02-15T14:35:13.445Z,15.80
2019-02-15T14:37:44.013Z,15.80
2019-02-15T14:40:14.809Z,15.80
2019-02-15T14:42:45.363Z,15.80
2019-02-15T14:45:16.176Z,15.90
2019-02-15T14:47:54.649Z,15.80
2019-02-15T14:50:19.166Z,15.80
2019-02-15T14:53:02.294Z,15.80
2019-02-15T14:55:30.057Z,15.80
2019-02-15T14:58:00.715Z,15.80
2019-02-15T15:00:31.211Z,15.80
2019-02-15T15:03:01.772Z,15.80
2019-02-15T15:05:32.283Z,15.80
2019-02-15T15:08:03.142Z,15.80
2019-02-15T15:10:33.699Z,15.80
2019-02-15T15:13:26.966Z,15.80
2019-02-15T15:16:00.704Z,15.80
2019-02-15T15:18:33.458Z,15.80
2019-02-15T15:21:04.089Z,15.80
2019-02-15T15:23:34.725Z,15.80
2019-02-15T15:26:11.554Z,15.80
2019-02-15T15:29:01.825Z,15.80
2019-02-15T15:31:32.357Z,15.80
2019-02-15T15:34:03.010Z,15.70
2019-02-15T15:36:54.157Z,15.70
2019-02-15T15:39:24.758Z,15.70
2019-02-15T15:42:04.601Z,15.60
2019-02-15T15:44:35.185Z,15.60
2019-02-15T15:47:07.184Z,15.50
2019-02-15T15:49:37.820Z,15.50
2019-02-15T15:52:08.324Z,15.50
2019-02-15T15:54:38.844Z,15.50
2019-02-15T15:57:20.591Z,15.40
2019-02-15T15:59:51.301Z,15.40
2019-02-15T16:02:21.915Z,15.40
2019-02-15T16:04:52.741Z,15.30
2019-02-15T16:07:23.511Z,15.30
2019-02-15T16:09:59.322Z,15.30
2019-02-15T16:12:42.566Z,15.30
2019-02-15T16:15:16.229Z,15.20
2019-02-15T16:17:50.137Z,15.10
2019-02-15T16:20:23.495Z,15.10
2019-02-15T16:22:57.218Z,15.10
2019-02-15T16:25:27.856Z,15.10
2019-02-15T16:28:01.388Z,15.00
2019-02-15T16:30:41.224Z,15.00
2019-02-15T16:33:21.393Z,14.90
2019-02-15T16:35:52.120Z,14.90
2019-02-15T16:38:22.830Z,14.80
2019-02-15T16:40:53.577Z,14.80
2019-02-15T16:43:29.733Z,14.70
2019-02-15T16:46:00.360Z,14.60
2019-02-15T16:48:31.123Z,14.60
2019-02-15T16:51:02.748Z,14.50
2019-02-15T16:53:33.350Z,14.40
2019-02-15T16:56:03.926Z,14.40
2019-02-15T16:58:35.776Z,14.30
2019-02-15T17:01:09.597Z,14.20
2019-02-15T17:03:40.189Z,14.10
2019-02-15T17:06:10.865Z,14.00
2019-02-15T17:08:41.284Z,14.00
2019-02-15T17:11:12.733Z,13.90
2019-02-15T17:13:43.347Z,13.80
2019-02-15T17:16:14.110Z,13.70
2019-02-15T17:18:51.592Z,13.60
2019-02-15T17:21:16.979Z,13.50
2019-02-15T17:23:47.556Z,13.40
2019-02-15T17:28:53.230Z,13.30
2019-02-15T17:31:24.127Z,13.20
2019-02-15T17:33:54.753Z,13.10
2019-02-15T17:36:25.412Z,13.00
2019-02-15T17:39:05.351Z,12.90
2019-02-15T17:41:36.235Z,12.80
2019-02-15T17:44:06.813Z,12.70
2019-02-15T17:46:37.394Z,12.60
2019-02-15T17:49:09.145Z,12.60
2019-02-15T17:51:39.640Z,12.50
2019-02-15T17:54:13.067Z,12.40
2019-02-15T17:56:43.629Z,12.30
2019-02-15T17:59:14.266Z,12.20
2019-02-15T18:01:44.860Z,12.20
2019-02-15T18:04:15.402Z,12.10
2019-02-15T18:06:46.121Z,12.10
2019-02-15T18:09:16.950Z,12.00
2019-02-15T18:11:49.856Z,12.00
2019-02-15T18:14:20.340Z,12.00
2019-02-15T18:16:51.071Z,12.00
2019-02-15T18:19:21.851Z,11.90
2019-02-15T18:21:52.480Z,11.90
2019-02-15T18:24:32.862Z,11.90
2019-02-15T18:27:12.606Z,11.90
2019-02-15T18:29:43.252Z,11.80
2019-02-15T18:32:15.608Z,11.80
2019-02-15T18:34:46.406Z,11.70
2019-02-15T18:37:17.127Z,11.70
2019-02-15T18:39:47.809Z,11.70
2019-02-15T18:42:18.378Z,11.70
2019-02-15T18:44:49.027Z,11.70
2019-02-15T18:47:19.575Z,11.60
2019-02-15T18:49:50.187Z,11.60
2019-02-15T18:52:20.912Z,11.60
2019-02-15T18:54:51.632Z,11.50
2019-02-15T18:57:25.733Z,11.50
2019-02-15T18:59:56.309Z,11.50
2019-02-15T19:02:26.871Z,11.40
2019-02-15T19:04:57.437Z,11.40
2019-02-15T19:07:28.190Z,11.40
2019-02-15T19:09:58.816Z,11.30
2019-02-15T19:12:29.321Z,11.30
2019-02-15T19:14:59.871Z,11.20
2019-02-15T19:17:30.486Z,11.20
2019-02-15T19:20:01.064Z,11.10
2019-02-15T19:22:31.637Z,11.10
2019-02-15T19:25:02.263Z,11.00
2019-02-15T19:27:32.790Z,10.90
2019-02-15T19:30:03.732Z,10.90
2019-02-15T19:32:34.413Z,10.80
2019-02-15T19:35:04.940Z,10.80
2019-02-15T19:37:35.511Z,10.70
2019-02-15T19:40:07.507Z,10.60
2019-02-15T19:42:38.334Z,10.60
2019-02-15T19:45:10.758Z,10.50
2019-02-15T19:47:41.272Z,10.50
2019-02-15T19:50:13.858Z,10.50
2019-02-15T19:52:44.661Z,10.40
2019-02-15T19:55:15.456Z,10.40
2019-02-15T19:57:46.016Z,10.30
2019-02-15T20:00:18.285Z,10.30
2019-02-15T20:02:48.868Z,10.20
2019-02-15T20:05:19.473Z,10.20
2019-02-15T20:07:49.962Z,10.20
2019-02-15T20:10:22.592Z,10.10
2019-02-15T20:12:53.076Z,10.10
2019-02-15T20:15:24.968Z,10.00
2019-02-15T20:17:57.763Z,10.00
2019-02-15T20:20:28.273Z,9.90
2019-02-15T20:22:58.908Z,9.90
2019-02-15T20:25:29.455Z,9.90
2019-02-15T20:27:59.976Z,9.80
2019-02-15T20:30:30.558Z,9.80
2019-02-15T20:33:01.061Z,9.70
2019-02-15T20:35:31.629Z,9.60
2019-02-15T20:38:02.204Z,9.60
2019-02-15T20:40:32.739Z,9.50
2019-02-15T20:43:03.273Z,9.50
2019-02-15T20:45:33.964Z,9.50
2019-02-15T20:48:04.856Z,9.40
2019-02-15T20:50:35.355Z,9.30
2019-02-15T20:53:07.401Z,9.30
2019-02-15T20:55:38.103Z,9.20
2019-02-15T20:58:08.683Z,9.20
2019-02-15T21:00:39.313Z,9.10
2019-02-15T21:03:09.886Z,9.10
2019-02-15T21:05:40.440Z,9.00
2019-02-15T21:08:11.179Z,9.00
2019-02-15T21:10:41.736Z,8.90
2019-02-15T21:13:20.132Z,8.90
2019-02-15T21:18:17.112Z,8.90
2019-02-15T21:20:47.630Z,8.90
2019-02-15T21:23:18.244Z,8.80
2019-02-15T21:25:48.833Z,8.80
2019-02-15T21:28:19.359Z,8.90
2019-02-15T21:30:49.919Z,8.90
2019-02-15T21:33:20.481Z,8.90
2019-02-15T21:35:51.065Z,8.80
2019-02-15T21:38:21.753Z,8.80
2019-02-15T21:40:52.382Z,8.80
2019-02-15T21:43:23.001Z,8.90
2019-02-15T21:45:55.841Z,8.70
2019-02-15T21:48:26.413Z,8.60
2019-02-15T21:50:57.204Z,8.50
2019-02-15T21:53:28.018Z,8.50
2019-02-15T21:55:58.630Z,8.40
2019-02-15T21:58:29.276Z,8.40
2019-02-15T22:01:01.439Z,8.30
2019-02-15T22:03:31.984Z,8.30
2019-02-15T22:06:02.566Z,8.30
2019-02-15T22:08:33.293Z,8.20
2019-02-15T22:11:03.847Z,8.20
2019-02-15T22:13:36.046Z,8.10
2019-02-15T22:16:06.758Z,8.10
2019-02-15T22:18:37.356Z,8.00
2019-02-15T22:21:07.964Z,7.90
2019-02-15T22:23:38.552Z,7.90
2019-02-15T22:26:09.307Z,7.80
2019-02-15T22:28:39.924Z,7.80
2019-02-15T22:31:12.007Z,7.80
2019-02-15T22:33:42.719Z,7.70
2019-02-15T22:36:13.257Z,7.70
2019-02-15T22:38:43.843Z,7.70
2019-02-15T22:41:18.682Z,7.70
2019-02-15T22:43:49.252Z,7.60
2019-02-15T22:46:19.807Z,7.60
2019-02-15T22:48:50.582Z,7.60
2019-02-15T22:51:21.208Z,7.60
2019-02-15T22:53:51.803Z,7.60
2019-02-15T22:56:22.429Z,7.60
2019-02-15T22:58:53.065Z,7.60
2019-02-15T23:01:24.231Z,7.50
2019-02-15T23:03:54.984Z,7.50
2019-02-15T23:06:27.946Z,7.50
2019-02-15T23:08:58.573Z,7.50
2019-02-15T23:11:29.134Z,7.40
2019-02-15T23:13:59.795Z,7.40
2019-02-15T23:16:30.316Z,7.40
2019-02-15T23:19:00.870Z,7.30
2019-02-15T23:21:31.494Z,7.20
2019-02-15T23:24:02.017Z,7.20
2019-02-15T23:26:32.529Z,7.10
2019-02-15T23:29:03.074Z,7.10
2019-02-15T23:31:33.753Z,7.10
2019-02-15T23:34:04.292Z,7.10
2019-02-15T23:36:34.921Z,7.10
2019-02-15T23:39:06.634Z,7.00
2019-02-15T23:41:37.273Z,7.00
2019-02-15T23:44:07.893Z,7.00
2019-02-15T23:46:38.495Z,7.00
2019-02-15T23:49:09.050Z,7.00
2019-02-15T23:51:39.685Z,7.00
2019-02-15T23:54:10.242Z,7.00
2019-02-15T23:56:40.798Z,7.00
2019-02-15T23:59:11.351Z,7.00
